Paynesville, MN

1:55 AM CDT on August 29, 2014 (GMT -0500)
Paynesville | Change Station
CLOSE
Current Station
Airport
Location: Paynesville,
Elevation: 1181 ft
Nearby Weather Stations

Elev 1181 ft 45.37 °N, 94.74 °W | Updated 21 minutes ago

Heavy Rain
Heavy Rain
63 °F
Feels Like 63 °F
N
9
Wind Variable Wind from ENE

Today
High -- | Low -- °F
--% Chance of Precip.
Yesterday
High -- | Low -- °F
Precip. -- in
6:36 AM 8:01 PM
Waxing Crescent, 12% visible
Pressure 29.85 in
Visibility 7.0 miles
Clouds Overcast 700 ft
Dew Point 62 °F
Humidity 98%
Rainfall 0.00 in
Snow Depth Not available.
UV 0 out of 12
Pollen 7.00 out of 12
Air Quality Not available.
Flu Activity Not available.
METAR KPEX 290634Z AUTO 07008KT 7SM +RA OVC007 17/17 A2985 RMK AO2 LTG DSNT SW T01700167

More Conditions Fewer Conditions

Pressure 29.85 in
Visibility 7.0 miles
Clouds Overcast 700 ft
Dew Point 62 °F
Humidity 98%
Rainfall 0.00 in
Snow Depth Not available.
UV 0 out of 12
Pollen 7.00 out of 12
Air Quality Not available.
Flu Activity Not available.
METAR KPEX 290634Z AUTO 07008KT 7SM +RA OVC007 17/17 A2985 RMK AO2 LTG DSNT SW T01700167

More Conditions Fewer Conditions

10-Day Weather Forecast

Almanac

Astronomy

Aug. 29, 2014 Rise Set
Actual Time 6:36 AM CDT 8:01 PM CDT
Civil Twilight 6:05 AM CDT 8:32 PM CDT
Nautical Twilight 5:28 AM CDT 9:09 PM CDT
Astronomical Twilight 4:48 AM CDT 9:49 PM CDT
Moon 10:40 AM CDT 9:45 PM CDT
Length of Visible Light 14h 26m
Length of Day
13h 25m
Tomorrow will be 3m 3s shorter.
Waxing Crescent, 12% of the Moon is Illuminated
Today
Waxing Crescent
Sep 2
First Quarter
Sep 8
Full
Sep 15
Last Quarter
Sep 24
New

Today's Extremes

State Highs State Lows

Community

WunderPhotos

Upload Photos

1,748,197 photos uploaded!

Nearby

Snow Depth

Station Depth Elevation
No new snow has been reported.

Earthquake Activity

City Distance Mag. Time & Date
No recent earthquake activity has been reported nearby.
Minimum magnitude displayed is 2.5.

Coastal Water Temperatures

Place Temperature
No Stations Reporting

Nearby Weather Stations